sensor_id;sensor_type;location;lat;lon;timestamp;P1;durP1;ratioP1;P2;durP2;ratioP2
23046;SDS011;11691;51.462;6.902;2023-04-05T00:00:30;8.53;;;4.53;;
23046;SDS011;11691;51.462;6.902;2023-04-05T00:02:56;8.33;;;5.10;;
23046;SDS011;11691;51.462;6.902;2023-04-05T00:05:24;8.93;;;5.07;;
23046;SDS011;11691;51.462;6.902;2023-04-05T00:07:58;8.50;;;4.47;;
23046;SDS011;11691;51.462;6.902;2023-04-05T00:10:26;7.47;;;4.80;;
23046;SDS011;11691;51.462;6.902;2023-04-05T00:12:52;10.80;;;5.13;;
23046;SDS011;11691;51.462;6.902;2023-04-05T00:15:18;9.13;;;5.03;;
23046;SDS011;11691;51.462;6.902;2023-04-05T00:17:44;10.30;;;5.27;;
23046;SDS011;11691;51.462;6.902;2023-04-05T00:20:11;11.07;;;5.13;;
23046;SDS011;11691;51.462;6.902;2023-04-05T00:22:37;8.30;;;4.53;;
23046;SDS011;11691;51.462;6.902;2023-04-05T00:25:03;7.73;;;5.27;;
23046;SDS011;11691;51.462;6.902;2023-04-05T00:27:29;8.83;;;5.93;;
23046;SDS011;11691;51.462;6.902;2023-04-05T00:29:55;10.87;;;5.30;;
23046;SDS011;11691;51.462;6.902;2023-04-05T00:32:21;10.97;;;5.60;;
23046;SDS011;11691;51.462;6.902;2023-04-05T00:34:48;11.67;;;5.57;;
23046;SDS011;11691;51.462;6.902;2023-04-05T00:37:14;8.60;;;5.00;;
23046;SDS011;11691;51.462;6.902;2023-04-05T00:39:40;8.53;;;5.07;;
23046;SDS011;11691;51.462;6.902;2023-04-05T00:42:06;9.67;;;5.47;;
23046;SDS011;11691;51.462;6.902;2023-04-05T00:44:33;10.23;;;5.50;;
23046;SDS011;11691;51.462;6.902;2023-04-05T00:47:02;10.57;;;5.63;;
23046;SDS011;11691;51.462;6.902;2023-04-05T00:49:29;10.97;;;5.67;;
23046;SDS011;11691;51.462;6.902;2023-04-05T00:51:57;13.27;;;5.33;;
23046;SDS011;11691;51.462;6.902;2023-04-05T00:54:26;9.97;;;5.40;;
23046;SDS011;11691;51.462;6.902;2023-04-05T00:56:54;8.83;;;5.50;;
23046;SDS011;11691;51.462;6.902;2023-04-05T00:59:20;12.37;;;5.57;;
23046;SDS011;11691;51.462;6.902;2023-04-05T01:01:47;12.47;;;5.77;;
23046;SDS011;11691;51.462;6.902;2023-04-05T01:04:21;10.50;;;5.87;;
23046;SDS011;11691;51.462;6.902;2023-04-05T01:11:41;10.73;;;5.67;;
23046;SDS011;11691;51.462;6.902;2023-04-05T01:14:09;11.23;;;6.37;;
23046;SDS011;11691;51.462;6.902;2023-04-05T01:16:35;10.03;;;5.47;;
23046;SDS011;11691;51.462;6.902;2023-04-05T01:19:00;9.60;;;5.90;;
23046;SDS011;11691;51.462;6.902;2023-04-05T01:34:39;10.17;;;5.70;;
23046;SDS011;11691;51.462;6.902;2023-04-05T01:37:25;7.10;;;4.97;;
23046;SDS011;11691;51.462;6.902;2023-04-05T01:39:54;11.10;;;5.63;;
23046;SDS011;11691;51.462;6.902;2023-04-05T01:42:21;9.03;;;5.03;;
23046;SDS011;11691;51.462;6.902;2023-04-05T01:44:49;13.33;;;5.30;;
23046;SDS011;11691;51.462;6.902;2023-04-05T01:47:15;10.57;;;5.70;;
23046;SDS011;11691;51.462;6.902;2023-04-05T01:49:41;13.73;;;6.00;;
23046;SDS011;11691;51.462;6.902;2023-04-05T01:52:07;12.87;;;6.07;;
23046;SDS011;11691;51.462;6.902;2023-04-05T01:54:33;10.23;;;5.80;;
23046;SDS011;11691;51.462;6.902;2023-04-05T01:56:59;7.23;;;5.20;;
23046;SDS011;11691;51.462;6.902;2023-04-05T01:59:24;11.63;;;5.77;;
23046;SDS011;11691;51.462;6.902;2023-04-05T02:01:51;9.40;;;5.53;;
23046;SDS011;11691;51.462;6.902;2023-04-05T02:04:17;11.37;;;5.93;;
23046;SDS011;11691;51.462;6.902;2023-04-05T02:06:42;13.40;;;6.50;;
23046;SDS011;11691;51.462;6.902;2023-04-05T02:09:09;9.97;;;5.90;;
23046;SDS011;11691;51.462;6.902;2023-04-05T02:11:35;10.47;;;5.87;;
23046;SDS011;11691;51.462;6.902;2023-04-05T02:14:01;10.07;;;5.77;;
23046;SDS011;11691;51.462;6.902;2023-04-05T02:16:28;10.03;;;6.20;;
23046;SDS011;11691;51.462;6.902;2023-04-05T02:18:57;11.50;;;6.40;;
23046;SDS011;11691;51.462;6.902;2023-04-05T02:21:23;11.93;;;6.10;;
23046;SDS011;11691;51.462;6.902;2023-04-05T02:23:50;10.27;;;5.73;;
23046;SDS011;11691;51.462;6.902;2023-04-05T02:26:16;12.77;;;5.73;;
23046;SDS011;11691;51.462;6.902;2023-04-05T02:28:42;7.90;;;5.17;;
23046;SDS011;11691;51.462;6.902;2023-04-05T02:31:08;10.43;;;5.33;;
23046;SDS011;11691;51.462;6.902;2023-04-05T02:33:37;12.43;;;5.53;;
23046;SDS011;11691;51.462;6.902;2023-04-05T02:36:04;10.83;;;5.80;;
23046;SDS011;11691;51.462;6.902;2023-04-05T02:38:31;8.20;;;5.20;;
23046;SDS011;11691;51.462;6.902;2023-04-05T02:40:57;14.80;;;6.03;;
23046;SDS011;11691;51.462;6.902;2023-04-05T02:43:23;12.80;;;5.67;;
23046;SDS011;11691;51.462;6.902;2023-04-05T02:45:50;9.63;;;6.00;;
23046;SDS011;11691;51.462;6.902;2023-04-05T02:48:16;10.20;;;5.70;;
23046;SDS011;11691;51.462;6.902;2023-04-05T02:50:46;9.00;;;5.73;;
23046;SDS011;11691;51.462;6.902;2023-04-05T02:53:13;13.17;;;6.33;;
23046;SDS011;11691;51.462;6.902;2023-04-05T02:55:39;9.83;;;5.67;;
23046;SDS011;11691;51.462;6.902;2023-04-05T02:58:06;8.33;;;5.57;;
23046;SDS011;11691;51.462;6.902;2023-04-05T03:00:32;11.43;;;5.77;;
23046;SDS011;11691;51.462;6.902;2023-04-05T03:02:58;10.07;;;5.67;;
23046;SDS011;11691;51.462;6.902;2023-04-05T03:05:24;11.33;;;6.10;;
23046;SDS011;11691;51.462;6.902;2023-04-05T03:07:51;8.63;;;5.70;;
23046;SDS011;11691;51.462;6.902;2023-04-05T03:10:19;11.27;;;6.33;;
23046;SDS011;11691;51.462;6.902;2023-04-05T03:12:46;12.20;;;5.93;;
23046;SDS011;11691;51.462;6.902;2023-04-05T03:15:15;9.13;;;5.70;;
23046;SDS011;11691;51.462;6.902;2023-04-05T03:17:41;10.90;;;5.97;;
23046;SDS011;11691;51.462;6.902;2023-04-05T03:20:08;9.60;;;6.10;;
23046;SDS011;11691;51.462;6.902;2023-04-05T03:22:34;12.90;;;6.00;;
23046;SDS011;11691;51.462;6.902;2023-04-05T03:25:00;10.83;;;6.53;;
23046;SDS011;11691;51.462;6.902;2023-04-05T03:27:27;14.73;;;6.70;;
23046;SDS011;11691;51.462;6.902;2023-04-05T03:29:53;10.87;;;6.37;;
23046;SDS011;11691;51.462;6.902;2023-04-05T03:32:19;11.20;;;6.43;;
23046;SDS011;11691;51.462;6.902;2023-04-05T03:34:45;9.50;;;5.77;;
23046;SDS011;11691;51.462;6.902;2023-04-05T03:37:11;12.63;;;6.60;;
23046;SDS011;11691;51.462;6.902;2023-04-05T03:39:37;12.73;;;5.87;;
23046;SDS011;11691;51.462;6.902;2023-04-05T03:42:03;12.00;;;6.57;;
23046;SDS011;11691;51.462;6.902;2023-04-05T03:44:29;11.37;;;7.20;;
23046;SDS011;11691;51.462;6.902;2023-04-05T03:46:55;11.23;;;6.33;;
23046;SDS011;11691;51.462;6.902;2023-04-05T03:49:22;13.30;;;6.63;;
23046;SDS011;11691;51.462;6.902;2023-04-05T03:51:48;13.17;;;7.00;;
23046;SDS011;11691;51.462;6.902;2023-04-05T03:54:14;10.90;;;6.20;;
23046;SDS011;11691;51.462;6.902;2023-04-05T03:56:40;13.50;;;6.67;;
23046;SDS011;11691;51.462;6.902;2023-04-05T03:59:06;12.17;;;6.67;;
23046;SDS011;11691;51.462;6.902;2023-04-05T04:01:32;9.80;;;6.37;;
23046;SDS011;11691;51.462;6.902;2023-04-05T04:03:58;12.73;;;6.60;;
23046;SDS011;11691;51.462;6.902;2023-04-05T04:06:24;10.00;;;6.03;;
23046;SDS011;11691;51.462;6.902;2023-04-05T04:08:50;14.77;;;7.00;;
23046;SDS011;11691;51.462;6.902;2023-04-05T04:11:16;15.40;;;6.43;;
23046;SDS011;11691;51.462;6.902;2023-04-05T04:13:43;12.80;;;6.37;;
23046;SDS011;11691;51.462;6.902;2023-04-05T04:16:09;13.60;;;6.20;;
23046;SDS011;11691;51.462;6.902;2023-04-05T04:18:35;11.27;;;6.47;;
23046;SDS011;11691;51.462;6.902;2023-04-05T04:21:04;14.77;;;6.37;;
23046;SDS011;11691;51.462;6.902;2023-04-05T04:23:31;11.53;;;7.07;;
23046;SDS011;11691;51.462;6.902;2023-04-05T04:25:58;13.33;;;6.77;;
23046;SDS011;11691;51.462;6.902;2023-04-05T04:28:26;11.30;;;6.90;;
23046;SDS011;11691;51.462;6.902;2023-04-05T04:30:52;14.20;;;7.00;;
23046;SDS011;11691;51.462;6.902;2023-04-05T04:33:18;12.27;;;6.00;;
23046;SDS011;11691;51.462;6.902;2023-04-05T04:35:44;14.77;;;7.13;;
23046;SDS011;11691;51.462;6.902;2023-04-05T04:38:11;12.63;;;7.00;;
23046;SDS011;11691;51.462;6.902;2023-04-05T04:40:43;13.27;;;6.63;;
23046;SDS011;11691;51.462;6.902;2023-04-05T04:43:14;11.80;;;6.40;;
23046;SDS011;11691;51.462;6.902;2023-04-05T04:45:50;12.63;;;6.27;;
23046;SDS011;11691;51.462;6.902;2023-04-05T04:48:18;13.23;;;6.97;;
23046;SDS011;11691;51.462;6.902;2023-04-05T04:50:45;12.47;;;6.90;;
23046;SDS011;11691;51.462;6.902;2023-04-05T04:53:12;13.07;;;7.10;;
23046;SDS011;11691;51.462;6.902;2023-04-05T04:55:41;15.53;;;7.20;;
23046;SDS011;11691;51.462;6.902;2023-04-05T04:58:08;12.37;;;6.90;;
23046;SDS011;11691;51.462;6.902;2023-04-05T05:00:39;14.07;;;6.37;;
23046;SDS011;11691;51.462;6.902;2023-04-05T05:03:06;12.13;;;6.93;;
23046;SDS011;11691;51.462;6.902;2023-04-05T05:05:32;8.47;;;6.27;;
23046;SDS011;11691;51.462;6.902;2023-04-05T05:07:58;12.90;;;7.00;;
23046;SDS011;11691;51.462;6.902;2023-04-05T05:10:24;14.10;;;6.97;;
23046;SDS011;11691;51.462;6.902;2023-04-05T05:12:50;10.73;;;6.03;;
23046;SDS011;11691;51.462;6.902;2023-04-05T05:15:18;15.53;;;6.87;;
23046;SDS011;11691;51.462;6.902;2023-04-05T05:17:44;13.43;;;7.07;;
23046;SDS011;11691;51.462;6.902;2023-04-05T05:20:11;11.97;;;6.87;;
23046;SDS011;11691;51.462;6.902;2023-04-05T05:22:37;11.50;;;6.60;;
23046;SDS011;11691;51.462;6.902;2023-04-05T05:25:04;12.47;;;6.57;;
23046;SDS011;11691;51.462;6.902;2023-04-05T05:27:30;14.87;;;7.00;;
23046;SDS011;11691;51.462;6.902;2023-04-05T05:29:58;15.67;;;7.20;;
23046;SDS011;11691;51.462;6.902;2023-04-05T05:32:25;13.50;;;6.80;;
23046;SDS011;11691;51.462;6.902;2023-04-05T05:34:51;10.90;;;6.50;;
23046;SDS011;11691;51.462;6.902;2023-04-05T05:37:17;13.73;;;7.30;;
23046;SDS011;11691;51.462;6.902;2023-04-05T05:39:43;14.07;;;7.80;;
23046;SDS011;11691;51.462;6.902;2023-04-05T05:42:09;13.23;;;6.40;;
23046;SDS011;11691;51.462;6.902;2023-04-05T05:44:35;17.03;;;7.50;;
23046;SDS011;11691;51.462;6.902;2023-04-05T05:47:02;13.90;;;8.23;;
23046;SDS011;11691;51.462;6.902;2023-04-05T05:49:28;14.00;;;8.10;;
23046;SDS011;11691;51.462;6.902;2023-04-05T05:51:55;18.30;;;8.53;;
23046;SDS011;11691;51.462;6.902;2023-04-05T05:54:21;15.93;;;8.07;;
23046;SDS011;11691;51.462;6.902;2023-04-05T05:56:47;14.03;;;7.73;;
23046;SDS011;11691;51.462;6.902;2023-04-05T05:59:13;13.30;;;8.10;;
23046;SDS011;11691;51.462;6.902;2023-04-05T06:01:39;13.53;;;7.70;;
23046;SDS011;11691;51.462;6.902;2023-04-05T06:04:07;20.23;;;7.63;;
23046;SDS011;11691;51.462;6.902;2023-04-05T06:06:33;13.77;;;7.73;;
23046;SDS011;11691;51.462;6.902;2023-04-05T06:08:59;13.97;;;7.83;;
23046;SDS011;11691;51.462;6.902;2023-04-05T06:11:25;11.47;;;6.77;;
23046;SDS011;11691;51.462;6.902;2023-04-05T06:13:51;15.07;;;7.57;;
23046;SDS011;11691;51.462;6.902;2023-04-05T06:16:19;16.73;;;7.80;;
23046;SDS011;11691;51.462;6.902;2023-04-05T06:18:45;14.97;;;7.27;;
23046;SDS011;11691;51.462;6.902;2023-04-05T06:21:12;14.93;;;7.90;;
23046;SDS011;11691;51.462;6.902;2023-04-05T06:23:39;15.57;;;8.10;;
23046;SDS011;11691;51.462;6.902;2023-04-05T06:26:05;15.97;;;8.20;;
23046;SDS011;11691;51.462;6.902;2023-04-05T06:28:31;20.93;;;7.87;;
23046;SDS011;11691;51.462;6.902;2023-04-05T06:30:57;14.50;;;7.93;;
23046;SDS011;11691;51.462;6.902;2023-04-05T06:33:23;13.70;;;7.67;;
23046;SDS011;11691;51.462;6.902;2023-04-05T06:35:50;16.63;;;7.30;;
23046;SDS011;11691;51.462;6.902;2023-04-05T06:38:16;14.90;;;8.03;;
23046;SDS011;11691;51.462;6.902;2023-04-05T06:40:42;17.63;;;8.60;;
23046;SDS011;11691;51.462;6.902;2023-04-05T06:43:08;13.90;;;7.80;;
23046;SDS011;11691;51.462;6.902;2023-04-05T06:45:37;14.60;;;8.57;;
23046;SDS011;11691;51.462;6.902;2023-04-05T06:48:03;14.73;;;7.73;;
23046;SDS011;11691;51.462;6.902;2023-04-05T06:50:29;14.80;;;7.87;;
23046;SDS011;11691;51.462;6.902;2023-04-05T06:52:55;13.57;;;7.47;;
23046;SDS011;11691;51.462;6.902;2023-04-05T06:55:21;12.03;;;6.67;;
23046;SDS011;11691;51.462;6.902;2023-04-05T06:57:47;14.37;;;6.20;;
23046;SDS011;11691;51.462;6.902;2023-04-05T07:00:13;10.67;;;6.07;;
23046;SDS011;11691;51.462;6.902;2023-04-05T07:02:41;9.80;;;6.27;;
23046;SDS011;11691;51.462;6.902;2023-04-05T07:05:07;11.13;;;5.60;;
23046;SDS011;11691;51.462;6.902;2023-04-05T07:07:42;10.90;;;5.57;;
23046;SDS011;11691;51.462;6.902;2023-04-05T07:10:09;12.23;;;6.20;;
23046;SDS011;11691;51.462;6.902;2023-04-05T07:12:36;15.57;;;5.97;;
23046;SDS011;11691;51.462;6.902;2023-04-05T07:15:02;8.33;;;5.10;;
23046;SDS011;11691;51.462;6.902;2023-04-05T07:17:28;9.63;;;5.03;;
23046;SDS011;11691;51.462;6.902;2023-04-05T07:19:54;9.70;;;5.60;;
23046;SDS011;11691;51.462;6.902;2023-04-05T07:22:20;8.83;;;4.63;;
23046;SDS011;11691;51.462;6.902;2023-04-05T07:24:46;8.83;;;5.07;;
23046;SDS011;11691;51.462;6.902;2023-04-05T07:27:12;7.40;;;4.70;;
23046;SDS011;11691;51.462;6.902;2023-04-05T07:29:39;9.43;;;4.20;;
23046;SDS011;11691;51.462;6.902;2023-04-05T07:32:07;6.37;;;4.13;;
23046;SDS011;11691;51.462;6.902;2023-04-05T07:34:34;7.63;;;4.60;;
23046;SDS011;11691;51.462;6.902;2023-04-05T07:37:00;8.40;;;4.37;;
23046;SDS011;11691;51.462;6.902;2023-04-05T07:39:27;7.17;;;4.43;;
23046;SDS011;11691;51.462;6.902;2023-04-05T07:41:53;11.03;;;5.57;;
23046;SDS011;11691;51.462;6.902;2023-04-05T07:44:19;12.60;;;5.50;;
23046;SDS011;11691;51.462;6.902;2023-04-05T07:46:45;9.32;;;6.28;;
23046;SDS011;11691;51.462;6.902;2023-04-05T07:49:11;8.93;;;5.77;;
23046;SDS011;11691;51.462;6.902;2023-04-05T07:51:37;8.45;;;4.60;;
23046;SDS011;11691;51.462;6.902;2023-04-05T07:54:04;7.15;;;5.10;;
23046;SDS011;11691;51.462;6.902;2023-04-05T07:56:30;8.40;;;5.13;;
23046;SDS011;11691;51.462;6.902;2023-04-05T07:58:56;7.80;;;5.43;;
23046;SDS011;11691;51.462;6.902;2023-04-05T08:01:23;7.90;;;4.90;;
23046;SDS011;11691;51.462;6.902;2023-04-05T08:03:52;7.47;;;4.60;;
23046;SDS011;11691;51.462;6.902;2023-04-05T08:06:23;10.13;;;4.75;;
23046;SDS011;11691;51.462;6.902;2023-04-05T08:08:51;6.70;;;4.63;;
23046;SDS011;11691;51.462;6.902;2023-04-05T08:11:17;7.38;;;4.35;;
23046;SDS011;11691;51.462;6.902;2023-04-05T08:13:43;9.32;;;5.85;;
23046;SDS011;11691;51.462;6.902;2023-04-05T08:16:09;8.40;;;5.28;;
23046;SDS011;11691;51.462;6.902;2023-04-05T08:18:35;8.43;;;4.97;;
23046;SDS011;11691;51.462;6.902;2023-04-05T08:21:01;12.50;;;5.57;;
23046;SDS011;11691;51.462;6.902;2023-04-05T08:23:27;9.25;;;5.70;;
23046;SDS011;11691;51.462;6.902;2023-04-05T08:25:54;11.90;;;5.75;;
23046;SDS011;11691;51.462;6.902;2023-04-05T08:28:20;8.80;;;5.60;;
23046;SDS011;11691;51.462;6.902;2023-04-05T08:30:46;11.00;;;5.85;;
23046;SDS011;11691;51.462;6.902;2023-04-05T08:33:12;9.90;;;5.70;;
23046;SDS011;11691;51.462;6.902;2023-04-05T08:35:38;10.77;;;4.57;;
23046;SDS011;11691;51.462;6.902;2023-04-05T08:38:07;6.15;;;3.78;;
23046;SDS011;11691;51.462;6.902;2023-04-05T08:40:40;7.22;;;4.82;;
23046;SDS011;11691;51.462;6.902;2023-04-05T08:43:09;7.25;;;4.70;;
23046;SDS011;11691;51.462;6.902;2023-04-05T08:45:34;7.53;;;4.05;;
23046;SDS011;11691;51.462;6.902;2023-04-05T08:48:10;8.88;;;4.65;;
23046;SDS011;11691;51.462;6.902;2023-04-05T08:50:36;8.93;;;4.90;;
23046;SDS011;11691;51.462;6.902;2023-04-05T08:53:02;7.45;;;4.63;;
23046;SDS011;11691;51.462;6.902;2023-04-05T08:55:28;7.82;;;4.72;;
23046;SDS011;11691;51.462;6.902;2023-04-05T08:57:55;5.57;;;4.63;;
23046;SDS011;11691;51.462;6.902;2023-04-05T09:00:23;7.15;;;4.53;;
23046;SDS011;11691;51.462;6.902;2023-04-05T09:02:50;6.50;;;4.30;;
23046;SDS011;11691;51.462;6.902;2023-04-05T09:05:17;8.15;;;4.75;;
23046;SDS011;11691;51.462;6.902;2023-04-05T09:07:45;7.38;;;4.20;;
23046;SDS011;11691;51.462;6.902;2023-04-05T09:10:12;7.78;;;4.22;;
23046;SDS011;11691;51.462;6.902;2023-04-05T09:12:38;6.63;;;4.30;;
23046;SDS011;11691;51.462;6.902;2023-04-05T09:15:05;6.82;;;4.68;;
23046;SDS011;11691;51.462;6.902;2023-04-05T09:17:32;6.25;;;4.55;;
23046;SDS011;11691;51.462;6.902;2023-04-05T09:19:58;6.35;;;4.50;;
23046;SDS011;11691;51.462;6.902;2023-04-05T09:22:24;7.90;;;4.35;;
23046;SDS011;11691;51.462;6.902;2023-04-05T09:24:50;6.97;;;4.40;;
23046;SDS011;11691;51.462;6.902;2023-04-05T09:27:17;6.40;;;4.32;;
23046;SDS011;11691;51.462;6.902;2023-04-05T09:29:45;6.32;;;4.70;;
23046;SDS011;11691;51.462;6.902;2023-04-05T09:32:12;5.80;;;4.10;;
23046;SDS011;11691;51.462;6.902;2023-04-05T09:34:39;6.78;;;4.80;;
23046;SDS011;11691;51.462;6.902;2023-04-05T09:37:26;6.57;;;4.50;;
23046;SDS011;11691;51.462;6.902;2023-04-05T09:40:00;7.60;;;4.50;;
23046;SDS011;11691;51.462;6.902;2023-04-05T09:42:27;6.78;;;5.25;;
23046;SDS011;11691;51.462;6.902;2023-04-05T09:45:00;6.32;;;4.45;;
23046;SDS011;11691;51.462;6.902;2023-04-05T09:47:31;7.07;;;5.07;;
23046;SDS011;11691;51.462;6.902;2023-04-05T09:49:59;9.43;;;5.00;;
23046;SDS011;11691;51.462;6.902;2023-04-05T09:52:29;9.77;;;4.60;;
23046;SDS011;11691;51.462;6.902;2023-04-05T09:54:56;7.85;;;4.68;;
23046;SDS011;11691;51.462;6.902;2023-04-05T09:57:24;9.55;;;5.00;;
23046;SDS011;11691;51.462;6.902;2023-04-05T09:59:51;7.20;;;4.90;;
23046;SDS011;11691;51.462;6.902;2023-04-05T10:02:17;8.07;;;5.18;;
23046;SDS011;11691;51.462;6.902;2023-04-05T10:04:44;11.48;;;5.10;;
23046;SDS011;11691;51.462;6.902;2023-04-05T10:07:11;7.65;;;5.18;;
23046;SDS011;11691;51.462;6.902;2023-04-05T10:09:38;6.57;;;4.90;;
23046;SDS011;11691;51.462;6.902;2023-04-05T10:12:06;8.93;;;5.00;;
23046;SDS011;11691;51.462;6.902;2023-04-05T10:14:33;6.82;;;5.18;;
23046;SDS011;11691;51.462;6.902;2023-04-05T10:20:22;5.80;;;4.22;;
23046;SDS011;11691;51.462;6.902;2023-04-05T10:28:05;7.60;;;4.70;;
23046;SDS011;11691;51.462;6.902;2023-04-05T10:30:35;6.47;;;4.50;;
23046;SDS011;11691;51.462;6.902;2023-04-05T10:41:14;6.65;;;4.35;;
23046;SDS011;11691;51.462;6.902;2023-04-05T10:43:41;8.90;;;4.97;;
23046;SDS011;11691;51.462;6.902;2023-04-05T10:46:07;8.68;;;4.72;;
23046;SDS011;11691;51.462;6.902;2023-04-05T10:48:56;5.65;;;4.35;;
23046;SDS011;11691;51.462;6.902;2023-04-05T10:51:28;4.18;;;3.67;;
23046;SDS011;11691;51.462;6.902;2023-04-05T10:53:55;5.75;;;3.83;;
23046;SDS011;11691;51.462;6.902;2023-04-05T10:56:21;5.78;;;3.33;;
23046;SDS011;11691;51.462;6.902;2023-04-05T10:58:48;7.38;;;3.53;;
23046;SDS011;11691;51.462;6.902;2023-04-05T11:01:16;9.00;;;3.92;;
23046;SDS011;11691;51.462;6.902;2023-04-05T11:03:51;4.30;;;3.90;;
23046;SDS011;11691;51.462;6.902;2023-04-05T11:06:20;5.13;;;4.45;;
23046;SDS011;11691;51.462;6.902;2023-04-05T11:09:13;5.65;;;4.18;;
23046;SDS011;11691;51.462;6.902;2023-04-05T11:11:40;6.22;;;3.97;;
23046;SDS011;11691;51.462;6.902;2023-04-05T11:14:51;9.70;;;4.50;;
23046;SDS011;11691;51.462;6.902;2023-04-05T11:17:03;6.53;;;3.92;;
23046;SDS011;11691;51.462;6.902;2023-04-05T11:22:11;4.68;;;3.90;;
23046;SDS011;11691;51.462;6.902;2023-04-05T11:24:50;5.45;;;3.72;;
23046;SDS011;11691;51.462;6.902;2023-04-05T11:27:21;7.20;;;4.35;;
23046;SDS011;11691;51.462;6.902;2023-04-05T11:29:53;6.35;;;4.35;;
23046;SDS011;11691;51.462;6.902;2023-04-05T11:32:20;10.60;;;4.75;;
23046;SDS011;11691;51.462;6.902;2023-04-05T11:34:59;7.32;;;3.90;;
23046;SDS011;11691;51.462;6.902;2023-04-05T11:40:27;5.90;;;4.45;;
23046;SDS011;11691;51.462;6.902;2023-04-05T11:42:58;6.70;;;4.65;;
23046;SDS011;11691;51.462;6.902;2023-04-05T11:45:24;9.27;;;4.43;;
23046;SDS011;11691;51.462;6.902;2023-04-05T11:47:50;7.70;;;4.78;;
23046;SDS011;11691;51.462;6.902;2023-04-05T11:50:16;9.10;;;4.75;;
23046;SDS011;11691;51.462;6.902;2023-04-05T11:52:42;7.97;;;4.90;;
23046;SDS011;11691;51.462;6.902;2023-04-05T11:55:08;6.63;;;4.72;;
23046;SDS011;11691;51.462;6.902;2023-04-05T11:57:35;6.35;;;4.28;;
23046;SDS011;11691;51.462;6.902;2023-04-05T12:00:02;7.03;;;4.38;;
23046;SDS011;11691;51.462;6.902;2023-04-05T12:02:32;11.27;;;5.00;;
23046;SDS011;11691;51.462;6.902;2023-04-05T12:04:58;5.93;;;4.15;;
23046;SDS011;11691;51.462;6.902;2023-04-05T12:07:26;6.25;;;4.15;;
23046;SDS011;11691;51.462;6.902;2023-04-05T12:10:02;7.47;;;4.15;;
23046;SDS011;11691;51.462;6.902;2023-04-05T12:12:35;5.72;;;3.58;;
23046;SDS011;11691;51.462;6.902;2023-04-05T12:15:03;9.32;;;3.85;;
23046;SDS011;11691;51.462;6.902;2023-04-05T12:17:39;6.22;;;4.25;;
23046;SDS011;11691;51.462;6.902;2023-04-05T12:20:05;9.95;;;4.10;;
23046;SDS011;11691;51.462;6.902;2023-04-05T12:22:31;6.20;;;4.30;;
23046;SDS011;11691;51.462;6.902;2023-04-05T12:24:57;7.90;;;4.32;;
23046;SDS011;11691;51.462;6.902;2023-04-05T12:27:23;5.97;;;4.20;;
23046;SDS011;11691;51.462;6.902;2023-04-05T12:35:23;6.22;;;4.40;;
23046;SDS011;11691;51.462;6.902;2023-04-05T12:38:00;4.93;;;3.83;;
23046;SDS011;11691;51.462;6.902;2023-04-05T12:40:27;9.18;;;4.30;;
23046;SDS011;11691;51.462;6.902;2023-04-05T12:43:03;6.07;;;4.22;;
23046;SDS011;11691;51.462;6.902;2023-04-05T12:45:30;8.00;;;4.28;;
23046;SDS011;11691;51.462;6.902;2023-04-05T12:48:07;7.50;;;3.97;;
23046;SDS011;11691;51.462;6.902;2023-04-05T12:50:34;6.15;;;3.72;;
23046;SDS011;11691;51.462;6.902;2023-04-05T12:53:03;4.78;;;4.30;;
23046;SDS011;11691;51.462;6.902;2023-04-05T12:55:30;7.10;;;4.25;;
23046;SDS011;11691;51.462;6.902;2023-04-05T12:57:59;4.80;;;3.95;;
23046;SDS011;11691;51.462;6.902;2023-04-05T13:00:27;7.47;;;4.65;;
23046;SDS011;11691;51.462;6.902;2023-04-05T13:02:54;7.32;;;4.07;;
23046;SDS011;11691;51.462;6.902;2023-04-05T13:05:29;7.93;;;4.82;;
23046;SDS011;11691;51.462;6.902;2023-04-05T13:07:55;6.40;;;4.18;;
23046;SDS011;11691;51.462;6.902;2023-04-05T13:10:21;7.38;;;4.40;;
23046;SDS011;11691;51.462;6.902;2023-04-05T13:12:48;5.57;;;4.32;;
23046;SDS011;11691;51.462;6.902;2023-04-05T13:15:15;6.53;;;3.90;;
23046;SDS011;11691;51.462;6.902;2023-04-05T13:17:41;7.45;;;4.57;;
23046;SDS011;11691;51.462;6.902;2023-04-05T13:20:09;6.28;;;4.25;;
23046;SDS011;11691;51.462;6.902;2023-04-05T13:22:35;5.40;;;4.20;;
23046;SDS011;11691;51.462;6.902;2023-04-05T13:25:01;6.53;;;4.50;;
23046;SDS011;11691;51.462;6.902;2023-04-05T13:27:27;5.63;;;3.97;;
23046;SDS011;11691;51.462;6.902;2023-04-05T13:29:53;6.32;;;4.50;;
23046;SDS011;11691;51.462;6.902;2023-04-05T13:32:19;5.25;;;3.90;;
23046;SDS011;11691;51.462;6.902;2023-04-05T13:34:45;6.13;;;4.30;;
23046;SDS011;11691;51.462;6.902;2023-04-05T13:37:12;5.55;;;4.45;;
23046;SDS011;11691;51.462;6.902;2023-04-05T13:39:38;9.35;;;5.50;;
23046;SDS011;11691;51.462;6.902;2023-04-05T13:42:04;7.60;;;4.72;;
23046;SDS011;11691;51.462;6.902;2023-04-05T13:44:30;5.38;;;4.60;;
23046;SDS011;11691;51.462;6.902;2023-04-05T13:46:57;6.22;;;4.63;;
23046;SDS011;11691;51.462;6.902;2023-04-05T13:49:22;7.40;;;4.28;;
23046;SDS011;11691;51.462;6.902;2023-04-05T13:51:48;5.78;;;4.43;;
23046;SDS011;11691;51.462;6.902;2023-04-05T13:54:14;6.70;;;4.60;;
23046;SDS011;11691;51.462;6.902;2023-04-05T13:56:42;6.50;;;4.53;;
23046;SDS011;11691;51.462;6.902;2023-04-05T13:59:09;9.55;;;5.07;;
23046;SDS011;11691;51.462;6.902;2023-04-05T14:01:40;7.15;;;4.50;;
23046;SDS011;11691;51.462;6.902;2023-04-05T14:04:06;6.10;;;4.18;;
23046;SDS011;11691;51.462;6.902;2023-04-05T14:06:32;6.40;;;4.22;;
23046;SDS011;11691;51.462;6.902;2023-04-05T14:08:58;7.57;;;3.92;;
23046;SDS011;11691;51.462;6.902;2023-04-05T14:11:24;5.30;;;4.10;;
23046;SDS011;11691;51.462;6.902;2023-04-05T14:13:50;5.18;;;4.22;;
23046;SDS011;11691;51.462;6.902;2023-04-05T14:16:16;5.80;;;3.90;;
23046;SDS011;11691;51.462;6.902;2023-04-05T14:18:42;8.32;;;4.00;;
23046;SDS011;11691;51.462;6.902;2023-04-05T14:21:08;7.03;;;4.38;;
23046;SDS011;11691;51.462;6.902;2023-04-05T14:23:35;7.43;;;3.85;;
23046;SDS011;11691;51.462;6.902;2023-04-05T14:26:01;7.38;;;4.13;;
23046;SDS011;11691;51.462;6.902;2023-04-05T14:28:27;6.15;;;4.15;;
23046;SDS011;11691;51.462;6.902;2023-04-05T14:30:53;5.30;;;4.13;;
23046;SDS011;11691;51.462;6.902;2023-04-05T14:33:19;5.43;;;4.28;;
23046;SDS011;11691;51.462;6.902;2023-04-05T14:35:45;5.35;;;4.10;;
23046;SDS011;11691;51.462;6.902;2023-04-05T14:38:11;7.43;;;4.47;;
23046;SDS011;11691;51.462;6.902;2023-04-05T14:40:37;7.47;;;4.68;;
23046;SDS011;11691;51.462;6.902;2023-04-05T14:43:03;7.03;;;4.75;;
23046;SDS011;11691;51.462;6.902;2023-04-05T14:45:29;5.55;;;4.13;;
23046;SDS011;11691;51.462;6.902;2023-04-05T14:47:56;9.98;;;4.65;;
23046;SDS011;11691;51.462;6.902;2023-04-05T14:50:22;5.78;;;4.68;;
23046;SDS011;11691;51.462;6.902;2023-04-05T14:52:48;5.82;;;4.30;;
23046;SDS011;11691;51.462;6.902;2023-04-05T14:55:14;6.78;;;4.88;;
23046;SDS011;11691;51.462;6.902;2023-04-05T14:57:41;9.50;;;4.22;;
23046;SDS011;11691;51.462;6.902;2023-04-05T15:00:07;6.45;;;4.70;;
23046;SDS011;11691;51.462;6.902;2023-04-05T15:02:36;7.18;;;4.72;;
23046;SDS011;11691;51.462;6.902;2023-04-05T15:05:03;7.70;;;4.25;;
23046;SDS011;11691;51.462;6.902;2023-04-05T15:07:30;7.10;;;4.20;;
23046;SDS011;11691;51.462;6.902;2023-04-05T15:09:56;7.38;;;4.35;;
23046;SDS011;11691;51.462;6.902;2023-04-05T15:12:22;7.22;;;4.68;;
23046;SDS011;11691;51.462;6.902;2023-04-05T15:14:48;5.32;;;4.07;;
23046;SDS011;11691;51.462;6.902;2023-04-05T15:17:18;6.28;;;4.30;;
23046;SDS011;11691;51.462;6.902;2023-04-05T15:19:44;6.18;;;4.47;;
23046;SDS011;11691;51.462;6.902;2023-04-05T15:22:11;6.15;;;4.65;;
23046;SDS011;11691;51.462;6.902;2023-04-05T15:24:37;6.50;;;4.50;;
23046;SDS011;11691;51.462;6.902;2023-04-05T15:27:04;7.80;;;4.63;;
23046;SDS011;11691;51.462;6.902;2023-04-05T15:29:30;5.72;;;3.90;;